<?xml version="1.0" encoding="UTF-8" standalone="no" ?>
<gpx xmlns="http://www.topografix.com/GPX/1/1" xmlns:xsi="http://www.w3.org/2001/XMLSchema-instance" xsi:schemaLocation="http://www.topografix.com/GPX/1/1 http://www.topografix.com/GPX/1/1/gpx.xsd" version="1.1" creator="VisuGPX - https://www.visugpx.com">
  <metadata>
    <name>2024-06-10-46-Montdoumerc</name>
    <desc><![CDATA[Randonnée de 10 km sans difficulté. A travers bois, champs et prés sur des chemins agréables. A découvrir les pigeonniers quercynois, le vieux moulin et sa retenue d'eau, sans oublier de flaner dans le village]]></desc>
  </metadata>
  <trk>
    <name><![CDATA[Montdoumerc]]></name>
    <extensions>
      <line xmlns="http://www.topografix.com/GPX/gpx_style/0/2">
        <color>0000FF</color>
        <width>4</width>
      </line>
    </extensions>
    <trkseg>
      <trkpt lat="44.28583" lon="1.51914">
        <ele>259.9</ele>
        <time>2022-09-23T15:50:43Z</time>
      </trkpt>
      <trkpt lat="44.28594" lon="1.51936">
        <ele>258.4</ele>
      </trkpt>
      <trkpt lat="44.28641" lon="1.51964">
        <ele>252</ele>
        <time>2022-09-23T15:52:12Z</time>
      </trkpt>
      <trkpt lat="44.28674" lon="1.52008">
        <ele>246</ele>
        <time>2022-09-23T15:53:13Z</time>
      </trkpt>
      <trkpt lat="44.28728" lon="1.52026">
        <ele>244</ele>
        <time>2022-09-23T15:54:27Z</time>
      </trkpt>
      <trkpt lat="44.28744" lon="1.52044">
        <ele>245</ele>
        <time>2022-09-23T15:54:55Z</time>
      </trkpt>
      <trkpt lat="44.28769" lon="1.52111">
        <ele>250</ele>
        <time>2022-09-23T15:56:07Z</time>
      </trkpt>
      <trkpt lat="44.28793" lon="1.52107">
        <ele>250</ele>
        <time>2022-09-23T15:56:39Z</time>
      </trkpt>
      <trkpt lat="44.28852" lon="1.52057">
        <ele>251.2</ele>
      </trkpt>
      <trkpt lat="44.2899" lon="1.5197">
        <ele>236</ele>
        <time>2022-09-23T16:01:33Z</time>
      </trkpt>
      <trkpt lat="44.2908" lon="1.51848">
        <ele>227.2</ele>
      </trkpt>
      <trkpt lat="44.29173" lon="1.51741">
        <ele>220.6</ele>
        <time>2022-09-23T16:07:00Z</time>
      </trkpt>
      <trkpt lat="44.29346" lon="1.51496">
        <ele>216</ele>
        <time>2022-09-23T16:12:30Z</time>
      </trkpt>
      <trkpt lat="44.294" lon="1.51292">
        <ele>206.1</ele>
        <time>2022-09-23T16:15:50Z</time>
      </trkpt>
      <trkpt lat="44.2946" lon="1.51288">
        <ele>202.6</ele>
        <time>2022-09-23T16:17:02Z</time>
      </trkpt>
      <trkpt lat="44.29505" lon="1.51371">
        <ele>202.2</ele>
      </trkpt>
      <trkpt lat="44.29539" lon="1.51465">
        <ele>208</ele>
        <time>2022-09-23T16:20:27Z</time>
      </trkpt>
      <trkpt lat="44.29515" lon="1.51515">
        <ele>210</ele>
        <time>2022-09-23T16:21:25Z</time>
      </trkpt>
      <trkpt lat="44.29551" lon="1.51525">
        <ele>205.2</ele>
      </trkpt>
      <trkpt lat="44.29621" lon="1.51586">
        <ele>202.8</ele>
        <time>2022-09-23T16:24:01Z</time>
      </trkpt>
      <trkpt lat="44.29668" lon="1.51611">
        <ele>201.9</ele>
      </trkpt>
      <trkpt lat="44.29724" lon="1.51666">
        <ele>199.9</ele>
        <time>2022-09-23T16:26:45Z</time>
      </trkpt>
      <trkpt lat="44.29748" lon="1.51626">
        <ele>204</ele>
        <time>2022-09-23T16:27:34Z</time>
      </trkpt>
      <trkpt lat="44.29814" lon="1.51566">
        <ele>207</ele>
        <time>2022-09-23T16:29:19Z</time>
      </trkpt>
      <trkpt lat="44.29892" lon="1.51521">
        <ele>209.1</ele>
      </trkpt>
      <trkpt lat="44.29932" lon="1.51483">
        <ele>214</ele>
        <time>2022-09-23T16:32:15Z</time>
      </trkpt>
      <trkpt lat="44.30061" lon="1.51494">
        <ele>218.4</ele>
      </trkpt>
      <trkpt lat="44.30186" lon="1.51489">
        <ele>231</ele>
        <time>2022-09-23T16:37:54Z</time>
      </trkpt>
      <trkpt lat="44.30281" lon="1.51453">
        <ele>235</ele>
        <time>2022-09-23T16:40:06Z</time>
      </trkpt>
      <trkpt lat="44.30336" lon="1.5143">
        <ele>238</ele>
      </trkpt>
      <trkpt lat="44.30365" lon="1.51408">
        <ele>239</ele>
        <time>2022-09-23T16:42:06Z</time>
      </trkpt>
      <trkpt lat="44.30453" lon="1.51341">
        <ele>243.5</ele>
      </trkpt>
      <trkpt lat="44.30527" lon="1.51314">
        <ele>249.6</ele>
        <time>2022-09-23T16:46:00Z</time>
      </trkpt>
      <trkpt lat="44.30561" lon="1.51318">
        <ele>251.5</ele>
      </trkpt>
      <trkpt lat="44.30592" lon="1.51345">
        <ele>254.3</ele>
        <time>2022-09-23T16:47:22Z</time>
      </trkpt>
      <trkpt lat="44.3064" lon="1.51365">
        <ele>256</ele>
        <time>2022-09-23T16:48:37Z</time>
      </trkpt>
      <trkpt lat="44.30807" lon="1.51253">
        <ele>256</ele>
        <time>2022-09-23T16:52:44Z</time>
      </trkpt>
      <trkpt lat="44.30985" lon="1.51262">
        <ele>251</ele>
        <time>2022-09-23T16:56:42Z</time>
      </trkpt>
      <trkpt lat="44.31083" lon="1.51247">
        <ele>250.6</ele>
        <time>2022-09-23T17:01:59Z</time>
      </trkpt>
      <trkpt lat="44.31262" lon="1.51264">
        <ele>250.7</ele>
        <time>2022-09-23T17:03:56Z</time>
      </trkpt>
      <trkpt lat="44.31293" lon="1.51269">
        <ele>250.5</ele>
      </trkpt>
      <trkpt lat="44.31341" lon="1.51316">
        <ele>248.7</ele>
      </trkpt>
      <trkpt lat="44.31388" lon="1.51366">
        <ele>248</ele>
      </trkpt>
      <trkpt lat="44.31463" lon="1.51405">
        <ele>249</ele>
      </trkpt>
      <trkpt lat="44.31523" lon="1.51454">
        <ele>248.5</ele>
        <time>2022-09-23T17:07:00Z</time>
      </trkpt>
      <trkpt lat="44.31564" lon="1.51543">
        <ele>249.2</ele>
      </trkpt>
      <trkpt lat="44.31686" lon="1.51706">
        <ele>248.2</ele>
      </trkpt>
      <trkpt lat="44.31583" lon="1.5188">
        <ele>254.3</ele>
        <time>2022-09-23T17:07:24Z</time>
      </trkpt>
      <trkpt lat="44.3152" lon="1.51881">
        <ele>254.5</ele>
      </trkpt>
      <trkpt lat="44.31468" lon="1.51884">
        <ele>253.6</ele>
        <time>2022-09-23T17:10:36Z</time>
      </trkpt>
      <trkpt lat="44.31471" lon="1.51955">
        <ele>253.6</ele>
      </trkpt>
      <trkpt lat="44.31402" lon="1.52086">
        <ele>250.5</ele>
      </trkpt>
      <trkpt lat="44.31269" lon="1.52324">
        <ele>246.6</ele>
      </trkpt>
      <trkpt lat="44.31167" lon="1.52515">
        <ele>233.5</ele>
      </trkpt>
      <trkpt lat="44.31103" lon="1.52631">
        <ele>223.8</ele>
      </trkpt>
      <trkpt lat="44.31015" lon="1.52579">
        <ele>218.7</ele>
      </trkpt>
      <trkpt lat="44.30991" lon="1.52581">
        <ele>218.1</ele>
      </trkpt>
      <trkpt lat="44.30919" lon="1.52506">
        <ele>220.5</ele>
      </trkpt>
      <trkpt lat="44.30862" lon="1.52571">
        <ele>217.5</ele>
        <time>2022-09-23T17:16:36Z</time>
      </trkpt>
      <trkpt lat="44.30837" lon="1.52596">
        <ele>216.5</ele>
        <time>2022-09-23T17:19:13Z</time>
      </trkpt>
      <trkpt lat="44.30759" lon="1.52811">
        <ele>209.3</ele>
      </trkpt>
      <trkpt lat="44.30547" lon="1.52676">
        <ele>207</ele>
        <time>2022-09-23T17:23:33Z</time>
      </trkpt>
      <trkpt lat="44.30681" lon="1.52549">
        <ele>210.2</ele>
        <time>2022-09-23T17:40:55Z</time>
      </trkpt>
      <trkpt lat="44.30728" lon="1.52277">
        <ele>220.9</ele>
        <time>2022-09-23T17:42:58Z</time>
      </trkpt>
      <trkpt lat="44.30747" lon="1.52028">
        <ele>226.9</ele>
      </trkpt>
      <trkpt lat="44.30513" lon="1.51933">
        <ele>236.5</ele>
        <time>2022-09-23T17:47:30Z</time>
      </trkpt>
      <trkpt lat="44.30286" lon="1.51955">
        <ele>221.3</ele>
      </trkpt>
      <trkpt lat="44.30175" lon="1.51972">
        <ele>214.3</ele>
        <time>2022-09-23T17:49:52Z</time>
      </trkpt>
      <trkpt lat="44.30089" lon="1.52086">
        <ele>208.6</ele>
        <time>2022-09-23T17:51:23Z</time>
      </trkpt>
      <trkpt lat="44.3" lon="1.52096">
        <ele>205</ele>
        <time>2022-09-23T17:52:34Z</time>
      </trkpt>
      <trkpt lat="44.2994" lon="1.52062">
        <ele>203.3</ele>
        <time>2022-09-23T17:54:04Z</time>
      </trkpt>
      <trkpt lat="44.29887" lon="1.52079">
        <ele>206.3</ele>
        <time>2022-09-23T17:55:05Z</time>
      </trkpt>
      <trkpt lat="44.29883" lon="1.52049">
        <ele>207.6</ele>
        <time>2022-09-23T17:55:42Z</time>
      </trkpt>
      <trkpt lat="44.2977" lon="1.52072">
        <ele>213.2</ele>
      </trkpt>
      <trkpt lat="44.29714" lon="1.52085">
        <ele>213.1</ele>
      </trkpt>
      <trkpt lat="44.29664" lon="1.5211">
        <ele>214.9</ele>
        <time>2022-09-23T18:01:02Z</time>
      </trkpt>
      <trkpt lat="44.29421" lon="1.52051">
        <ele>222</ele>
        <time>2022-09-23T18:06:14Z</time>
      </trkpt>
      <trkpt lat="44.29393" lon="1.52077">
        <ele>225.4</ele>
      </trkpt>
      <trkpt lat="44.29324" lon="1.52232">
        <ele>230</ele>
        <time>2022-09-23T18:09:50Z</time>
      </trkpt>
      <trkpt lat="44.29266" lon="1.52324">
        <ele>232.4</ele>
      </trkpt>
      <trkpt lat="44.29176" lon="1.52433">
        <ele>240.4</ele>
        <time>2022-09-23T18:14:00Z</time>
      </trkpt>
      <trkpt lat="44.29103" lon="1.52479">
        <ele>247.2</ele>
      </trkpt>
      <trkpt lat="44.29015" lon="1.52529">
        <ele>252.9</ele>
        <time>2022-09-23T18:18:18Z</time>
      </trkpt>
      <trkpt lat="44.28957" lon="1.52587">
        <ele>255.9</ele>
      </trkpt>
      <trkpt lat="44.28799" lon="1.5272">
        <ele>259.4</ele>
        <time>2022-09-23T18:23:55Z</time>
      </trkpt>
      <trkpt lat="44.28776" lon="1.52712">
        <ele>260.4</ele>
        <time>2022-09-23T18:24:38Z</time>
      </trkpt>
      <trkpt lat="44.28671" lon="1.52753">
        <ele>262.6</ele>
      </trkpt>
      <trkpt lat="44.2856" lon="1.5278">
        <ele>254.4</ele>
        <time>2022-09-23T18:29:33Z</time>
      </trkpt>
      <trkpt lat="44.28518" lon="1.52764">
        <ele>248</ele>
        <time>2022-09-23T18:30:32Z</time>
      </trkpt>
      <trkpt lat="44.28555" lon="1.52579">
        <ele>254</ele>
        <time>2022-09-23T18:33:35Z</time>
      </trkpt>
      <trkpt lat="44.28554" lon="1.52466">
        <ele>255.6</ele>
        <time>2022-09-23T18:35:07Z</time>
      </trkpt>
      <trkpt lat="44.28613" lon="1.52345">
        <ele>259.9</ele>
        <time>2022-09-23T18:37:39Z</time>
      </trkpt>
      <trkpt lat="44.28572" lon="1.5226">
        <ele>259</ele>
      </trkpt>
      <trkpt lat="44.28531" lon="1.52137">
        <ele>260</ele>
        <time>2022-09-23T18:41:29Z</time>
      </trkpt>
      <trkpt lat="44.28549" lon="1.52045">
        <ele>259.1</ele>
      </trkpt>
      <trkpt lat="44.28483" lon="1.52042">
        <ele>261.7</ele>
      </trkpt>
      <trkpt lat="44.28505" lon="1.51997">
        <ele>261.9</ele>
      </trkpt>
      <trkpt lat="44.28511" lon="1.5195">
        <ele>260.5</ele>
      </trkpt>
      <trkpt lat="44.28531" lon="1.51934">
        <ele>260.9</ele>
      </trkpt>
      <trkpt lat="44.28545" lon="1.51943">
        <ele>261.3</ele>
      </trkpt>
      <trkpt lat="44.28557" lon="1.51983">
        <ele>260.5</ele>
      </trkpt>
      <trkpt lat="44.28578" lon="1.51975">
        <ele>258.4</ele>
      </trkpt>
      <trkpt lat="44.28582" lon="1.51914">
        <ele>259.9</ele>
        <time>2022-09-23T18:45:07Z</time>
      </trkpt>
    </trkseg>
  </trk>
</gpx>